Time;durP1;ratioP1;P1;durP2;ratioP2;P2;SDS_P1;SDS_P2;PMS_P1;PMS_P2;Temp;Humidity;BMP_temperature;BMP_pressure;BME280_temperature;BME280_humidity;BME280_pressure;Samples;Min_cycle;Max_cycle;Signal;HPM_P1;HPM_P2
2024/02/28 00:01:31;;;;;;;48.60;27.57;;;;;;;8.50;85.17;100463.35;1477216;87;21405;-77
2024/02/28 00:03:58;;;;;;;56.17;25.67;;;;;;;8.46;84.49;100459.78;1470944;87;22240;-77
2024/02/28 00:06:25;;;;;;;58.27;27.93;;;;;;;8.44;84.73;100458.61;1474922;88;21293;-78
2024/02/28 00:08:54;;;;;;;53.73;27.73;;;;;;;8.43;84.52;100466.19;1472668;87;21375;-77
2024/02/28 00:11:21;;;;;;;58.80;27.67;;;;;;;8.38;84.56;100461.75;1471118;88;21419;-77
2024/02/28 00:13:48;;;;;;;55.23;28.30;;;;;;;8.33;84.89;100462.62;1467361;87;21566;-76
2024/02/28 00:16:15;;;;;;;51.23;26.43;;;;;;;8.30;84.87;100461.58;1478105;87;22333;-77
2024/02/28 00:18:42;;;;;;;47.67;24.13;;;;;;;8.30;84.65;100466.36;1470762;87;21560;-77
2024/02/28 00:21:09;;;;;;;38.90;24.07;;;;;;;8.31;84.41;100467.19;1467996;88;21612;-77
2024/02/28 00:23:36;;;;;;;53.87;25.20;;;;;;;8.29;84.32;100467.83;1473083;87;21383;-77
2024/02/28 00:26:03;;;;;;;46.67;25.70;;;;;;;8.27;84.37;100467.11;1474315;87;21620;-77
2024/02/28 00:28:30;;;;;;;45.07;23.83;;;;;;;8.23;84.78;100471.83;1472987;88;21546;-77
2024/02/28 00:30:57;;;;;;;40.13;22.63;;;;;;;8.18;84.75;100474.02;1476836;87;22255;-77
2024/02/28 00:33:24;;;;;;;45.07;25.50;;;;;;;8.14;84.65;100470.81;1479626;87;21478;-76
2024/02/28 00:35:53;;;;;;;46.27;24.07;;;;;;;8.11;84.54;100472.39;1474506;87;21882;-77
2024/02/28 00:38:20;;;;;;;46.47;25.10;;;;;;;8.06;84.65;100474.58;1471722;88;21353;-77
2024/02/28 00:40:47;;;;;;;47.57;24.50;;;;;;;8.01;84.88;100480.71;1475160;87;21346;-77
2024/02/28 00:43:14;;;;;;;51.47;26.60;;;;;;;7.96;85.85;100476.79;1474094;87;22850;-77
2024/02/28 00:45:41;;;;;;;46.27;25.47;;;;;;;7.92;86.28;100476.22;1468858;88;21434;-77
2024/02/28 00:48:08;;;;;;;49.43;25.93;;;;;;;7.88;86.39;100474.34;1475238;87;21487;-77
2024/02/28 00:50:35;;;;;;;48.03;26.03;;;;;;;7.87;86.32;100474.45;1476962;88;21411;-76
2024/02/28 00:53:03;;;;;;;45.97;24.37;;;;;;;7.84;87.02;100477.34;1477019;88;21697;-77
2024/02/28 00:55:30;;;;;;;39.33;21.50;;;;;;;7.74;87.61;100475.97;1472672;87;22000;-76
2024/02/28 00:57:57;;;;;;;44.77;22.77;;;;;;;7.72;87.78;100479.70;1474871;87;22476;-77
2024/02/28 01:00:24;;;;;;;44.70;21.03;;;;;;;7.64;90.14;100482.47;1471318;87;21345;-78
2024/02/28 01:02:51;;;;;;;38.63;20.77;;;;;;;7.61;89.78;100485.36;1481838;87;21375;-79
2024/02/28 01:05:19;;;;;;;36.70;21.83;;;;;;;7.60;89.61;100482.38;1466700;87;21389;-78
2024/02/28 01:07:46;;;;;;;36.37;21.33;;;;;;;7.61;89.59;100486.67;1469377;88;21338;-78
2024/02/28 01:10:13;;;;;;;35.10;20.97;;;;;;;7.59;89.58;100478.05;1479440;87;21316;-78
2024/02/28 01:12:40;;;;;;;33.43;20.43;;;;;;;7.57;89.67;100478.69;1472996;87;22270;-78
2024/02/28 01:15:08;;;;;;;38.70;21.53;;;;;;;7.53;89.57;100477.73;1473372;87;21526;-78
2024/02/28 01:17:35;;;;;;;37.70;21.20;;;;;;;;;;1468859;87;21527;-77
2024/02/28 01:20:02;;;;;;;35.47;20.13;;;;;;;7.46;91.73;100490.59;1470231;87;21470;-78
2024/02/28 01:22:29;;;;;;;36.67;19.67;;;;;;;7.44;91.21;100490.70;1468820;88;21797;-78
2024/02/28 01:24:56;;;;;;;36.07;22.10;;;;;;;7.41;92.84;100490.95;1467169;87;21361;-78
2024/02/28 01:27:23;;;;;;;43.20;22.57;;;;;;;7.39;92.01;100488.95;1477683;87;22387;-77
2024/02/28 01:29:50;;;;;;;72.67;25.97;;;;;;;7.39;91.67;100485.45;1466856;87;21368;-78
2024/02/28 01:32:17;;;;;;;55.30;25.13;;;;;;;7.36;92.63;100485.22;1475781;88;21294;-77
2024/02/28 01:34:44;;;;;;;61.13;26.33;;;;;;;7.34;92.74;100482.38;1480459;87;22300;-77
2024/02/28 01:37:11;;;;;;;45.07;24.43;;;;;;;7.32;92.69;100481.66;1474998;87;21361;-77
2024/02/28 01:39:38;;;;;;;58.80;25.17;;;;;;;7.28;93.96;100481.08;1470076;87;21368;-77
2024/02/28 01:42:05;;;;;;;44.47;25.77;;;;;;;7.24;94.10;100477.84;1472216;87;21947;-77
2024/02/28 01:44:37;;;;;;;45.00;24.07;;;;;;;7.19;95.93;100476.09;1471877;87;21382;-77
2024/02/28 01:47:04;;;;;;;44.40;24.43;;;;;;;7.11;96.51;100474.55;1475388;88;21507;-77
2024/02/28 01:49:32;;;;;;;47.93;26.53;;;;;;;7.09;95.59;100477.78;1465494;88;21457;-78
2024/02/28 01:51:59;;;;;;;53.63;24.70;;;;;;;7.07;95.45;100471.80;1480966;88;21405;-77
2024/02/28 01:54:29;;;;;;;47.60;24.33;;;;;;;7.05;95.28;100478.14;1474683;88;21382;-78
2024/02/28 01:56:57;;;;;;;55.75;25.05;;;;;;;7.02;95.42;100476.62;1462878;87;21389;-77
2024/02/28 01:59:27;;;;;;;42.27;24.50;;;;;;;6.97;98.35;100474.83;1477323;87;21382;-77
2024/02/28 02:01:55;;;;;;;51.13;25.17;;;;;;;6.93;97.47;100479.96;1481175;87;21456;-77
2024/02/28 02:04:22;;;;;;;41.53;23.23;;;;;;;6.91;96.77;100481.41;1474018;87;21544;-77
2024/02/28 02:06:52;;;;;;;39.30;23.53;;;;;;;6.91;96.72;100485.84;1476233;87;21330;-77
2024/02/28 02:09:19;;;;;;;34.80;21.83;;;;;;;6.94;96.54;100488.23;1473004;87;21345;-76
2024/02/28 02:11:46;;;;;;;43.23;23.47;;;;;;;6.95;96.08;100484.14;1453045;88;21427;-76
2024/02/28 02:14:13;;;;;;;37.53;20.20;;;;;;;7.00;95.90;100489.05;1479117;87;22529;-76
2024/02/28 02:16:40;;;;;;;40.50;22.90;;;;;;;7.02;96.12;100488.45;1478131;88;21353;-76
2024/02/28 02:19:10;;;;;;;39.93;22.10;;;;;;;6.98;96.67;100490.48;1469586;87;21309;-76
2024/02/28 02:21:45;;;;;;;38.07;21.27;;;;;;;6.95;96.41;100488.58;1465154;88;21953;-76
2024/02/28 02:24:12;;;;;;;41.97;21.47;;;;;;;6.91;97.39;100487.16;1480103;87;22356;-76
2024/02/28 02:26:39;;;;;;;34.60;20.07;;;;;;;6.89;98.28;100483.81;1469151;87;21471;-76
2024/02/28 02:29:08;;;;;;;47.87;21.57;;;;;;;6.87;98.52;100495.75;1480365;87;21331;-76
2024/02/28 02:31:35;;;;;;;43.43;22.00;;;;;;;6.85;97.82;100498.15;1470105;87;21315;-76
2024/02/28 02:34:02;;;;;;;30.37;18.83;;;;;;;6.83;97.46;100503.55;1474557;87;21353;-76
2024/02/28 02:36:29;;;;;;;30.87;20.03;;;;;;;6.84;97.42;100501.75;1476925;87;21329;-76
2024/02/28 02:38:57;;;;;;;32.17;18.07;;;;;;;6.85;97.62;100500.78;1468349;87;21346;-76
2024/02/28 02:41:24;;;;;;;37.63;20.33;;;;;;;6.85;97.90;100494.20;1474781;87;22336;-76
2024/02/28 02:43:52;;;;;;;37.13;20.13;;;;;;;6.84;98.10;100496.48;1477227;87;21330;-76
2024/02/28 02:46:19;;;;;;;36.87;19.80;;;;;;;6.81;98.90;100498.05;1480340;87;21556;-77
2024/02/28 02:48:46;;;;;;;36.17;20.50;;;;;;;6.78;98.97;100498.64;1475659;87;21301;-76
2024/02/28 02:51:14;;;;;;;39.27;22.37;;;;;;;6.76;99.93;100503.20;1461639;88;21368;-76
2024/02/28 02:53:41;;;;;;;35.73;19.73;;;;;;;6.71;100.00;100502.73;1475967;87;21419;-76
2024/02/28 02:56:08;;;;;;;39.17;21.27;;;;;;;6.70;100.00;100507.64;1475594;87;21501;-76
2024/02/28 02:58:35;;;;;;;39.77;20.80;;;;;;;6.72;100.00;100512.28;1477152;87;21435;-76
2024/02/28 03:01:03;;;;;;;40.43;20.33;;;;;;;6.74;100.00;100516.12;1468026;87;22183;-76
2024/02/28 03:03:30;;;;;;;42.03;21.27;;;;;;;6.77;100.00;100515.88;1477278;88;21449;-76
2024/02/28 03:05:58;;;;;;;37.67;19.47;;;;;;;6.78;100.00;100519.68;1478554;88;21480;-76
2024/02/28 03:08:25;;;;;;;32.77;17.17;;;;;;;6.78;100.00;100515.73;1469770;87;21346;-76
2024/02/28 03:10:52;;;;;;;30.47;17.97;;;;;;;6.77;100.00;100511.45;1480206;87;21331;-78
2024/02/28 03:13:19;;;;;;;32.47;18.73;;;;;;;6.80;100.00;100516.11;1475302;87;21360;-78
2024/02/28 03:15:46;;;;;;;28.83;17.07;;;;;;;6.85;100.00;100515.25;1468185;88;21848;-77
2024/02/28 03:18:13;;;;;;;28.00;16.03;;;;;;;6.87;100.00;100513.34;1468849;88;21332;-78
2024/02/28 03:20:41;;;;;;;34.17;16.27;;;;;;;6.91;100.00;100516.11;1471854;87;22917;-77
2024/02/28 03:23:08;;;;;;;28.37;16.47;;;;;;;6.95;100.00;100516.20;1474738;87;21398;-77
2024/02/28 03:25:35;;;;;;;30.47;17.40;;;;;;;6.95;100.00;100515.72;1472102;87;21397;-77
2024/02/28 03:28:03;;;;;;;25.47;15.47;;;;;;;6.97;100.00;100515.61;1463334;87;22720;-78
2024/02/28 03:30:30;;;;;;;29.07;16.43;;;;;;;7.01;99.59;100517.03;1472242;87;21541;-78
2024/02/28 03:32:57;;;;;;;29.03;16.57;;;;;;;7.05;99.49;100518.48;1474873;88;21515;-78
2024/02/28 03:35:24;;;;;;;25.27;15.17;;;;;;;7.08;98.97;100532.70;1471381;87;21316;-78
2024/02/28 03:37:51;;;;;;;29.67;15.97;;;;;;;7.05;98.46;100538.22;1469430;87;21339;-77
2024/02/28 03:40:18;;;;;;;28.80;16.33;;;;;;;6.98;99.45;100542.27;1475031;87;22808;-78
2024/02/28 03:42:45;;;;;;;26.97;15.33;;;;;;;6.94;99.58;100550.06;1473526;87;21329;-77
2024/02/28 03:45:13;;;;;;;26.33;15.37;;;;;;;6.89;100.00;100550.91;1469696;88;21405;-78
2024/02/28 03:47:40;;;;;;;29.57;15.13;;;;;;;6.81;100.00;100554.61;1473535;87;21360;-77
2024/02/28 03:50:08;;;;;;;27.07;14.57;;;;;;;6.76;100.00;100556.27;1473501;87;21456;-77
2024/02/28 03:52:35;;;;;;;24.97;14.07;;;;;;;6.73;100.00;100563.09;1474191;87;21353;-77
2024/02/28 03:55:03;;;;;;;28.73;15.17;;;;;;;6.71;100.00;100567.17;1471896;87;21420;-77
2024/02/28 03:57:30;;;;;;;30.07;15.43;;;;;;;6.67;100.00;100564.88;1477621;87;21265;-77
2024/02/28 03:59:57;;;;;;;31.70;16.73;;;;;;;6.64;100.00;100565.95;1473506;87;22307;-77
2024/02/28 04:02:25;;;;;;;32.43;17.90;;;;;;;6.61;100.00;100570.14;1475225;87;21539;-77
2024/02/28 04:04:52;;;;;;;28.97;16.67;;;;;;;6.63;100.00;100577.92;1475872;88;21235;-76
2024/02/28 04:07:19;;;;;;;37.13;17.77;;;;;;;6.63;100.00;100576.13;1466749;88;22248;-77
2024/02/28 04:09:46;;;;;;;28.93;16.83;;;;;;;6.62;100.00;100573.15;1476357;87;21390;-76
2024/02/28 04:12:13;;;;;;;29.43;16.87;;;;;;;6.66;100.00;100575.89;1465708;87;21323;-77
2024/02/28 04:14:40;;;;;;;25.53;13.93;;;;;;;6.72;100.00;100572.78;1475746;87;21434;-77
2024/02/28 04:17:07;;;;;;;25.47;14.60;;;;;;;6.80;100.00;100575.30;1464675;87;21324;-76
2024/02/28 04:19:39;;;;;;;23.80;14.40;;;;;;;6.85;100.00;100582.34;1477909;88;21448;-76
2024/02/28 04:22:06;;;;;;;26.00;14.03;;;;;;;6.92;100.00;100576.48;1479759;88;21419;-76
2024/02/28 04:24:33;;;;;;;25.30;13.67;;;;;;;6.98;100.00;100581.26;1474359;87;21677;-76
2024/02/28 04:27:02;;;;;;;25.07;14.20;;;;;;;7.06;100.00;100585.10;1467494;88;21397;-76
2024/02/28 04:29:31;;;;;;;23.40;14.63;;;;;;;7.12;100.00;100581.49;1473437;87;21457;-76
2024/02/28 04:31:58;;;;;;;33.60;16.30;;;;;;;7.20;100.00;100574.31;1478961;88;21479;-76
2024/02/28 04:34:25;;;;;;;36.50;17.13;;;;;;;7.28;100.00;100573.68;1473186;87;21412;-76
2024/02/28 04:36:52;;;;;;;24.30;13.60;;;;;;;7.35;100.00;100580.14;1480065;88;21360;-76
2024/02/28 04:39:19;;;;;;;27.23;14.47;;;;;;;7.39;100.00;100578.92;1478115;87;21279;-76
2024/02/28 04:41:46;;;;;;;26.97;13.90;;;;;;;7.44;100.00;100578.08;1482715;87;21375;-76
2024/02/28 04:44:13;;;;;;;25.70;13.63;;;;;;;7.49;100.00;100577.72;1468812;87;21360;-76
2024/02/28 04:46:40;;;;;;;27.43;14.47;;;;;;;7.53;100.00;100582.60;1474894;88;22225;-76
2024/02/28 04:49:09;;;;;;;28.13;15.00;;;;;;;7.60;99.93;100579.02;1477159;87;21338;-78
2024/02/28 04:51:36;;;;;;;26.73;14.53;;;;;;;7.64;99.56;100581.25;1464085;87;22341;-77
2024/02/28 04:54:03;;;;;;;27.63;15.40;;;;;;;7.61;98.89;100590.72;1469865;88;21448;-78
2024/02/28 04:56:30;;;;;;;28.00;15.20;;;;;;;7.52;99.58;100586.20;1472803;88;21443;-78
2024/02/28 04:58:57;;;;;;;33.17;17.50;;;;;;;7.45;100.00;100595.09;1476844;87;21339;-77
2024/02/28 05:01:25;;;;;;;31.93;17.80;;;;;;;7.42;99.85;100593.16;1468995;88;21309;-78
2024/02/28 05:03:52;;;;;;;33.87;16.47;;;;;;;7.44;99.75;100597.83;1477307;87;21464;-79
2024/02/28 05:06:19;;;;;;;42.87;21.90;;;;;;;7.45;99.75;100592.91;1463889;87;21485;-78
2024/02/28 05:08:46;;;;;;;36.27;21.23;;;;;;;7.49;99.82;100595.67;1474661;88;21420;-79
2024/02/28 05:11:13;;;;;;;31.10;17.53;;;;;;;7.53;99.11;100595.77;1478529;87;22189;-78
2024/02/28 05:13:40;;;;;;;33.30;18.03;;;;;;;7.53;98.48;100593.14;1469648;87;21353;-78
2024/02/28 05:16:15;;;;;;;26.67;14.23;;;;;;;7.53;98.22;100590.98;1471519;87;21353;-77
2024/02/28 05:18:45;;;;;;;33.87;14.23;;;;;;;7.52;98.51;100599.37;1474173;87;22447;-77
2024/02/28 05:21:13;;;;;;;25.93;15.13;;;;;;;7.55;98.24;100603.56;1466852;87;21434;-77
2024/02/28 05:23:41;;;;;;;32.30;14.33;;;;;;;7.53;97.81;100607.63;1476654;88;21316;-78
2024/02/28 05:26:08;;;;;;;30.33;14.80;;;;;;;7.55;97.31;100612.78;1476549;87;21345;-77
2024/02/28 05:28:36;;;;;;;33.23;17.63;;;;;;;7.47;98.96;100614.70;1459608;87;22300;-77
2024/02/28 05:31:23;;;;;;;28.83;18.33;;;;;;;7.38;100.00;100614.13;1477522;87;21496;-77
2024/02/28 05:33:56;;;;;;;31.80;19.13;;;;;;;7.35;100.00;100617.01;1469958;87;21574;-78
2024/02/28 05:36:25;;;;;;;40.37;19.27;;;;;;;7.30;100.00;100621.31;1473074;88;22270;-77
2024/02/28 05:38:57;;;;;;;30.70;16.83;;;;;;;7.34;100.00;100624.56;1477588;87;21390;-77
2024/02/28 05:41:24;;;;;;;29.57;14.67;;;;;;;7.40;100.00;100626.22;1469079;88;22883;-77
2024/02/28 05:43:52;;;;;;;52.13;25.40;;;;;;;7.48;100.00;100627.38;1479616;88;21337;-77
2024/02/28 05:46:22;;;;;;;34.90;16.97;;;;;;;7.46;100.00;100626.20;1482563;87;21412;-77
2024/02/28 05:48:49;;;;;;;33.83;17.50;;;;;;;7.42;100.00;100629.58;1469298;87;22366;-77
2024/02/28 05:51:16;;;;;;;29.37;16.63;;;;;;;7.46;100.00;100630.16;1467109;87;21368;-76
2024/02/28 05:53:43;;;;;;;31.67;16.50;;;;;;;7.49;100.00;100636.50;1466462;87;21360;-77
2024/02/28 05:56:14;;;;;;;29.07;15.10;;;;;;;7.54;100.00;100629.07;1474995;88;22350;-79
2024/02/28 05:58:43;;;;;;;;;;;;;;;7.62;100.00;100631.93;1472733;87;21825;-76
2024/02/28 06:01:11;;;;;;;28.77;15.17;;;;;;;7.69;100.00;100633.58;1478484;88;20303;-77
2024/02/28 06:03:38;;;;;;;29.43;15.47;;;;;;;7.73;100.00;100639.43;1473112;87;21405;-76
2024/02/28 06:06:06;;;;;;;30.63;14.63;;;;;;;7.80;100.00;100644.58;1480413;87;21611;-76
2024/02/28 06:08:39;;;;;;;30.30;15.67;;;;;;;7.82;100.00;100649.22;1477929;88;21412;-77
2024/02/28 06:11:07;;;;;;;38.77;15.63;;;;;;;7.80;100.00;100652.48;1472288;87;21375;-76
2024/02/28 06:13:34;;;;;;;38.53;19.63;;;;;;;7.79;100.00;100652.11;1471004;87;21405;-75
2024/02/28 06:16:02;;;;;;;33.23;17.80;;;;;;;7.84;100.00;100649.45;1478436;87;21383;-76
2024/02/28 06:18:33;;;;;;;29.93;17.63;;;;;;;7.94;100.00;100650.87;1477980;87;22440;-77
2024/02/28 06:21:00;;;;;;;32.47;15.53;;;;;;;8.03;100.00;100657.20;1475467;87;21528;-76
2024/02/28 06:23:27;;;;;;;51.60;17.33;;;;;;;8.13;100.00;100658.93;1478281;87;21493;-77
2024/02/28 06:25:56;;;;;;;43.60;16.97;;;;;;;8.22;100.00;100658.66;1478137;87;21323;-76
2024/02/28 06:28:24;;;;;;;34.77;17.93;;;;;;;8.30;100.00;100654.91;1466164;87;22463;-76
2024/02/28 06:30:51;;;;;;;30.17;15.90;;;;;;;8.44;100.00;100664.34;1481652;87;21375;-77
2024/02/28 06:33:18;;;;;;;25.80;15.83;;;;;;;8.54;100.00;100669.19;1479670;87;21316;-76
2024/02/28 06:35:46;;;;;;;48.17;20.50;;;;;;;8.57;100.00;100668.09;1471883;87;21464;-77
2024/02/28 06:38:13;;;;;;;37.17;18.57;;;;;;;8.59;100.00;100665.69;1478999;88;21593;-77
2024/02/28 06:40:41;;;;;;;45.50;23.33;;;;;;;8.67;100.00;100665.55;1486175;88;21375;-77
2024/02/28 06:43:08;;;;;;;38.03;20.00;;;;;;;8.74;100.00;100670.15;1468828;88;21425;-77
2024/02/28 06:45:36;;;;;;;36.67;16.80;;;;;;;8.81;100.00;100671.81;1475636;87;21426;-76
2024/02/28 06:48:04;;;;;;;31.27;16.00;;;;;;;8.84;100.00;100668.91;1478007;87;21442;-77
2024/02/28 06:50:31;;;;;;;36.03;16.80;;;;;;;8.84;100.00;100673.36;1474496;88;21317;-77
2024/02/28 06:52:59;;;;;;;40.93;16.07;;;;;;;8.84;100.00;100669.39;1475343;87;21478;-77
2024/02/28 06:55:26;;;;;;;30.67;14.93;;;;;;;8.89;100.00;100664.08;1467002;88;21574;-77
2024/02/28 06:57:53;;;;;;;37.27;16.57;;;;;;;8.94;100.00;100657.90;1476857;88;21375;-77
2024/02/28 07:00:21;;;;;;;34.17;17.40;;;;;;;9.01;100.00;100661.70;1474999;87;22249;-77
2024/02/28 07:02:48;;;;;;;28.73;17.67;;;;;;;9.19;100.00;100668.52;1483058;88;21493;-78
2024/02/28 07:05:15;;;;;;;37.73;19.37;;;;;;;9.32;100.00;100669.62;1473358;87;21338;-77
2024/02/28 07:07:42;;;;;;;45.30;22.40;;;;;;;9.52;100.00;100670.98;1473983;88;21405;-77
2024/02/28 07:10:10;;;;;;;33.10;18.47;;;;;;;9.70;99.55;100676.81;1479406;87;21530;-78
2024/02/28 07:12:37;;;;;;;29.23;17.90;;;;;;;9.85;96.48;100673.29;1480411;87;22285;-77
2024/02/28 07:15:05;;;;;;;29.10;17.10;;;;;;;9.97;96.44;100671.84;1480022;87;21412;-77
2024/02/28 07:17:32;;;;;;;32.93;16.70;;;;;;;10.07;93.74;100674.00;1480478;88;22159;-78
2024/02/28 07:19:59;;;;;;;32.20;17.10;;;;;;;10.23;93.84;100670.33;1469657;88;21368;-78
2024/02/28 07:22:26;;;;;;;27.03;15.60;;;;;;;10.34;92.21;100664.92;1466050;88;21420;-78
2024/02/28 07:24:54;;;;;;;35.63;15.07;;;;;;;10.49;91.70;100663.17;1479765;87;21375;-78
2024/02/28 07:27:24;;;;;;;30.30;16.50;;;;;;;10.56;89.84;100668.26;1478455;88;22789;-78
2024/02/28 07:29:51;;;;;;;40.33;16.00;;;;;;;10.61;89.25;100669.97;1470665;88;21368;-78
2024/02/28 07:32:18;;;;;;;34.47;19.37;;;;;;;10.74;89.37;100669.19;1471219;87;21375;-77
2024/02/28 07:34:45;;;;;;;94.37;48.17;;;;;;;10.87;89.97;100672.84;1474094;87;21456;-78
2024/02/28 07:37:12;;;;;;;49.97;27.00;;;;;;;11.02;89.89;100670.59;1477067;87;21361;-78
2024/02/28 07:39:39;;;;;;;28.47;15.87;;;;;;;11.18;90.11;100668.14;1476425;88;21287;-78
2024/02/28 07:42:06;;;;;;;26.73;17.30;;;;;;;11.33;88.89;100670.31;1479123;87;21360;-78
2024/02/28 07:44:34;;;;;;;26.50;15.83;;;;;;;11.47;88.46;100669.83;1479194;87;21512;-78
2024/02/28 07:47:01;;;;;;;28.10;16.80;;;;;;;11.65;87.43;100675.16;1471831;87;21390;-78
2024/02/28 07:49:28;;;;;;;26.27;16.03;;;;;;;11.83;87.01;100669.41;1476306;87;21420;-78
2024/02/28 07:51:55;;;;;;;95.40;56.10;;;;;;;12.00;84.98;100671.78;1469175;88;22306;-78
2024/02/28 07:54:22;;;;;;;105.07;64.93;;;;;;;12.19;84.76;100671.61;1474913;87;21420;-78
2024/02/28 07:56:49;;;;;;;123.20;74.87;;;;;;;12.43;83.52;100678.14;1471419;87;21869;-77
2024/02/28 07:59:16;;;;;;;158.00;95.77;;;;;;;12.66;82.60;100673.16;1472665;87;21382;-78
2024/02/28 08:01:45;;;;;;;200.03;116.63;;;;;;;12.90;81.64;100673.81;1470183;87;21383;-78
2024/02/28 08:04:12;;;;;;;253.67;141.80;;;;;;;13.18;80.89;100669.66;1474611;87;21347;-79
2024/02/28 08:06:41;;;;;;;142.00;84.47;;;;;;;13.43;79.81;100674.10;1472091;87;21360;-79
2024/02/28 08:09:08;;;;;;;139.33;76.37;;;;;;;13.69;79.22;100673.20;1479202;88;21482;-77
2024/02/28 08:11:35;;;;;;;72.17;41.90;;;;;;;13.93;77.36;100671.11;1471287;87;21478;-78
2024/02/28 08:14:03;;;;;;;39.70;22.17;;;;;;;14.10;76.11;100675.97;1476896;87;22322;-77
2024/02/28 08:16:30;;;;;;;32.70;18.50;;;;;;;14.24;74.93;100669.96;1478736;87;22175;-77
2024/02/28 08:18:58;;;;;;;28.60;17.33;;;;;;;14.42;73.58;100673.31;1468169;88;21360;-82
2024/02/28 08:21:26;;;;;;;35.80;18.03;;;;;;;14.58;72.36;100667.67;1469302;87;21316;-81
2024/02/28 08:23:54;;;;;;;43.53;22.03;;;;;;;14.66;67.78;100672.99;1463612;87;21462;-80
2024/02/28 08:26:24;;;;;;;48.67;26.67;;;;;;;14.75;68.60;100672.48;1473637;87;21345;-81
2024/02/28 08:28:51;;;;;;;51.25;25.17;;;;;;;14.86;67.75;100672.96;1473771;87;21375;-81
2024/02/28 08:31:18;;;;;;;77.20;40.23;;;;;;;15.00;67.56;100672.77;1466591;87;22233;-79
2024/02/28 08:33:45;;;;;;;55.50;30.87;;;;;;;15.18;66.54;100677.05;1462074;88;21427;-81
2024/02/28 08:36:12;;;;;;;91.90;50.37;;;;;;;15.37;66.05;100671.83;1472377;87;21345;-81
2024/02/28 08:38:39;;;;;;;69.60;38.43;;;;;;;15.52;64.43;100678.09;1475027;87;21471;-80
2024/02/28 08:41:08;;;;;;;40.63;24.30;;;;;;;15.66;63.80;100674.69;1485242;87;21420;-80
2024/02/28 08:43:39;;;;;;;65.13;34.47;;;;;;;15.74;62.66;100674.69;1471292;87;21353;-81
2024/02/28 08:46:07;;;;;;;59.97;34.03;;;;;;;15.85;62.31;100679.28;1482594;88;21323;-77
2024/02/28 08:48:34;;;;;;;43.77;23.57;;;;;;;16.00;61.97;100677.03;1476161;87;22388;-77
2024/02/28 08:51:04;;;;;;;34.97;16.93;;;;;;;16.17;61.70;100671.08;1471557;87;21434;-77
2024/02/28 08:53:30;;;;;;;26.13;15.23;;;;;;;16.30;60.64;100677.65;1465163;87;22315;-77
2024/02/28 08:55:57;;;;;;;34.43;14.97;;;;;;;16.45;60.80;100676.67;1468002;87;21412;-77
2024/02/28 08:58:25;;;;;;;35.73;18.23;;;;;;;16.51;58.95;100676.45;1472388;87;21383;-77
2024/02/28 09:00:52;;;;;;;39.97;19.63;;;;;;;16.65;58.93;100672.99;1478442;87;22782;-78
2024/02/28 09:03:22;;;;;;;30.53;17.83;;;;;;;16.83;58.42;100682.55;1476423;88;21317;-78
2024/02/28 09:05:49;;;;;;;34.80;19.33;;;;;;;16.96;57.40;100686.77;1471900;87;21545;-79
2024/02/28 09:08:16;;;;;;;33.50;18.10;;;;;;;17.01;55.60;100683.05;1472364;87;22312;-78
2024/02/28 09:10:43;;;;;;;54.20;19.70;;;;;;;17.05;55.64;100684.32;1472692;87;21353;-78
2024/02/28 09:13:12;;;;;;;36.87;17.97;;;;;;;17.20;56.13;100688.84;1475942;88;21427;-78
2024/02/28 09:15:39;;;;;;;29.67;16.97;;;;;;;17.42;55.94;100690.59;1475046;88;21330;-78
2024/02/28 09:18:08;;;;;;;42.63;20.57;;;;;;;17.63;55.54;100692.50;1479606;88;21428;-78
2024/02/28 09:20:36;;;;;;;35.78;19.87;;;;;;;17.80;54.97;100691.80;1480921;87;22173;-78
2024/02/28 09:23:03;;;;;;;40.43;21.82;;;;;;;17.95;54.45;100695.30;1480447;87;21500;-78
2024/02/28 09:25:32;;;;;;;30.85;18.17;;;;;;;18.04;52.85;100690.13;1470026;87;21411;-78
2024/02/28 09:28:00;;;;;;;38.33;18.42;;;;;;;18.16;52.91;100687.78;1480253;87;21324;-78
2024/02/28 09:30:27;;;;;;;37.75;16.85;;;;;;;18.29;52.01;100691.08;1475509;87;21778;-77
2024/02/28 09:32:54;;;;;;;24.27;14.50;;;;;;;18.37;51.86;100682.09;1474742;88;21346;-78
2024/02/28 09:35:21;;;;;;;26.48;12.95;;;;;;;18.48;51.10;100689.62;1472455;88;22499;-77
2024/02/28 09:37:49;;;;;;;24.77;14.00;;;;;;;18.65;48.43;100686.16;1470387;87;21375;-78
2024/02/28 09:40:16;;;;;;;19.57;11.80;;;;;;;18.76;49.07;100684.31;1473212;88;21390;-77
2024/02/28 09:42:55;;;;;;;23.27;13.68;;;;;;;18.91;47.46;100681.01;1474509;88;21375;-78
2024/02/28 09:45:24;;;;;;;29.70;14.63;;;;;;;19.27;48.59;100682.66;1474423;88;21565;-78
2024/02/28 09:47:51;;;;;;;30.77;12.90;;;;;;;19.45;48.62;100679.95;1471961;87;21338;-78
2024/02/28 09:50:19;;;;;;;24.35;11.53;;;;;;;19.45;47.71;100681.30;1480067;87;21301;-77
2024/02/28 09:52:49;;;;;;;21.77;12.53;;;;;;;19.35;45.77;100683.84;1477536;87;21420;-76
2024/02/28 09:55:16;;;;;;;8.95;5.15;;;;;;;19.33;45.63;100687.25;1477790;88;21427;-76
2024/02/28 09:57:45;;;;;;;9.95;5.72;;;;;;;19.17;43.17;100691.59;1481683;87;21353;-76
2024/02/28 10:00:14;;;;;;;10.48;5.33;;;;;;;18.99;41.97;100689.91;1464039;88;21397;-77
2024/02/28 10:02:45;;;;;;;12.40;5.55;;;;;;;19.13;41.63;100694.34;1473024;87;21619;-76
2024/02/28 10:05:12;;;;;;;18.10;5.72;;;;;;;19.19;41.23;100692.72;1471007;88;21375;-77
2024/02/28 10:07:39;;;;;;;16.67;5.28;;;;;;;19.46;41.11;100696.39;1472658;87;21442;-76
2024/02/28 10:10:10;;;;;;;15.00;6.33;;;;;;;19.80;39.40;100690.16;1475883;87;21286;-77
2024/02/28 10:12:44;;;;;;;11.93;7.15;;;;;;;20.33;40.75;100691.59;1476802;87;22285;-76
2024/02/28 10:15:11;;;;;;;20.37;11.83;;;;;;;20.80;37.41;100687.59;1476595;88;21559;-78
2024/02/28 10:17:39;;;;;;;24.43;6.20;;;;;;;21.16;38.53;100687.95;1475821;87;22422;-78
2024/02/28 10:20:07;;;;;;;25.65;14.60;;;;;;;21.15;37.69;100683.62;1469718;87;21397;-78
2024/02/28 10:22:36;;;;;;;11.25;6.00;;;;;;;21.12;37.69;100685.39;1472450;88;21382;-78
2024/02/28 10:25:03;;;;;;;13.88;6.20;;;;;;;21.05;38.16;100687.25;1468240;88;21618;-78
2024/02/28 10:27:35;;;;;;;16.95;6.00;;;;;;;20.83;37.65;100685.34;1478706;88;21360;-77
2024/02/28 10:30:07;;;;;;;15.90;5.87;;;;;;;20.46;38.48;100688.94;1470773;87;22292;-78
2024/02/28 10:32:35;;;;;;;12.13;5.05;;;;;;;20.10;38.80;100683.92;1470882;88;21482;-78
2024/02/28 10:35:03;;;;;;;12.10;5.05;;;;;;;19.78;38.84;100684.16;1469334;87;21479;-78
2024/02/28 10:37:32;;;;;;;8.75;4.55;;;;;;;19.41;39.04;100685.41;1472832;87;22329;-78
2024/02/28 10:40:01;;;;;;;19.77;7.25;;;;;;;19.18;39.64;100688.39;1476577;88;21345;-77
2024/02/28 10:42:30;;;;;;;20.77;5.30;;;;;;;18.97;39.77;100681.26;1470976;87;22380;-78
2024/02/28 10:44:58;;;;;;;12.18;5.45;;;;;;;18.87;40.19;100689.62;1478045;87;21332;-77
2024/02/28 10:47:28;;;;;;;12.07;5.20;;;;;;;18.73;39.31;100696.73;1471352;88;21339;-78
2024/02/28 10:49:56;;;;;;;15.50;5.87;;;;;;;18.67;40.54;100692.98;1468727;87;21323;-77
2024/02/28 10:52:25;;;;;;;9.93;5.08;;;;;;;18.60;40.46;100696.10;1478226;87;21309;-77
2024/02/28 10:55:00;;;;;;;12.03;5.58;;;;;;;18.56;40.94;100698.02;1469696;87;21485;-77
2024/02/28 10:57:25;;;;;;;16.60;5.30;;;;;;;18.43;40.37;100692.04;1473057;88;21434;-77
2024/02/28 10:59:54;;;;;;;14.87;5.62;;;;;;;18.39;40.26;100688.09;1466933;87;21345;-76
2024/02/28 11:02:23;;;;;;;16.55;6.28;;;;;;;18.33;40.70;100691.03;1477901;87;22291;-77
2024/02/28 11:04:53;;;;;;;12.25;6.28;;;;;;;18.30;41.09;100689.23;1484301;87;22470;-79
2024/02/28 11:07:21;;;;;;;;;;;;;;;18.25;40.84;100690.64;1467656;88;21831;-79
2024/02/28 11:09:57;;;;;;;15.18;6.03;;;;;;;18.16;41.22;100690.97;1482561;87;20986;-79
2024/02/28 11:12:28;;;;;;;12.10;5.62;;;;;;;18.14;41.68;100688.47;1475157;88;21442;-77
2024/02/28 11:15:01;;;;;;;15.53;5.87;;;;;;;18.06;41.15;100686.42;1464392;87;21656;-77
2024/02/28 11:17:31;;;;;;;18.27;7.22;;;;;;;18.02;41.39;100692.16;1481444;87;21397;-77